sensor_id;sensor_type;location;lat;lon;timestamp;pressure;altitude;pressure_sealevel;temperature;humidity
64294;BME280;50636;45.596;5.258;2022-08-19T00:00:08;98486.47;;;23.02;63.33
64294;BME280;50636;45.596;5.258;2022-08-19T00:02:35;98483.97;;;23.10;63.02
64294;BME280;50636;45.596;5.258;2022-08-19T00:05:02;98483.31;;;23.19;62.61
64294;BME280;50636;45.596;5.258;2022-08-19T00:07:27;98486.72;;;23.24;62.83
64294;BME280;50636;45.596;5.258;2022-08-19T00:09:53;98488.63;;;23.43;62.63
64294;BME280;50636;45.596;5.258;2022-08-19T00:12:19;98481.00;;;23.50;62.79
64294;BME280;50636;45.596;5.258;2022-08-19T00:14:45;98486.22;;;23.41;63.50
64294;BME280;50636;45.596;5.258;2022-08-19T00:17:11;98481.88;;;23.26;63.23
64294;BME280;50636;45.596;5.258;2022-08-19T00:19:37;98486.56;;;23.16;63.32
64294;BME280;50636;45.596;5.258;2022-08-19T00:22:03;98490.09;;;23.11;63.35
64294;BME280;50636;45.596;5.258;2022-08-19T00:24:31;98499.56;;;23.03;63.58
64294;BME280;50636;45.596;5.258;2022-08-19T00:26:57;98505.69;;;23.04;63.61
64294;BME280;50636;45.596;5.258;2022-08-19T00:29:24;98500.94;;;22.96;64.33
64294;BME280;50636;45.596;5.258;2022-08-19T00:31:51;98497.34;;;22.86;65.75
64294;BME280;50636;45.596;5.258;2022-08-19T00:34:20;98493.97;;;22.76;65.71
64294;BME280;50636;45.596;5.258;2022-08-19T00:36:47;98500.78;;;22.63;66.45
64294;BME280;50636;45.596;5.258;2022-08-19T00:39:15;98494.47;;;22.53;66.68
64294;BME280;50636;45.596;5.258;2022-08-19T00:41:43;98487.88;;;22.46;67.76
64294;BME280;50636;45.596;5.258;2022-08-19T00:44:12;98496.72;;;22.41;68.57
64294;BME280;50636;45.596;5.258;2022-08-19T00:46:42;98488.16;;;22.44;68.74
64294;BME280;50636;45.596;5.258;2022-08-19T00:49:40;98488.53;;;22.32;69.58
64294;BME280;50636;45.596;5.258;2022-08-19T00:52:11;98482.00;;;21.80;69.56
64294;BME280;50636;45.596;5.258;2022-08-19T00:54:39;98486.22;;;21.47;71.57
64294;BME280;50636;45.596;5.258;2022-08-19T00:57:09;98479.84;;;21.43;73.30
64294;BME280;50636;45.596;5.258;2022-08-19T00:59:39;98472.44;;;21.24;74.57
64294;BME280;50636;45.596;5.258;2022-08-19T01:02:05;98477.78;;;21.24;75.31
64294;BME280;50636;45.596;5.258;2022-08-19T01:04:31;98471.91;;;21.22;76.44
64294;BME280;50636;45.596;5.258;2022-08-19T01:06:58;98476.19;;;21.23;76.81
64294;BME280;50636;45.596;5.258;2022-08-19T01:09:24;98482.13;;;21.15;76.84
64294;BME280;50636;45.596;5.258;2022-08-19T01:11:50;98475.78;;;21.01;77.19
64294;BME280;50636;45.596;5.258;2022-08-19T01:14:19;98486.47;;;20.90;78.09
64294;BME280;50636;45.596;5.258;2022-08-19T01:16:46;98478.72;;;20.94;78.27
64294;BME280;50636;45.596;5.258;2022-08-19T01:19:27;98489.66;;;20.98;78.46
64294;BME280;50636;45.596;5.258;2022-08-19T01:24:47;98472.31;;;20.95;78.15
64294;BME280;50636;45.596;5.258;2022-08-19T01:27:13;98479.78;;;20.98;77.91
64294;BME280;50636;45.596;5.258;2022-08-19T01:29:41;98469.63;;;21.00;78.31
64294;BME280;50636;45.596;5.258;2022-08-19T01:32:08;98477.38;;;20.97;77.37
64294;BME280;50636;45.596;5.258;2022-08-19T01:34:37;98480.06;;;20.91;78.35
64294;BME280;50636;45.596;5.258;2022-08-19T01:37:09;98476.84;;;20.94;79.40
64294;BME280;50636;45.596;5.258;2022-08-19T01:39:37;98475.22;;;21.04;79.33
64294;BME280;50636;45.596;5.258;2022-08-19T01:42:03;98477.91;;;20.99;79.11
64294;BME280;50636;45.596;5.258;2022-08-19T01:44:29;98481.47;;;20.68;77.99
64294;BME280;50636;45.596;5.258;2022-08-19T01:46:58;98480.69;;;20.58;78.72
64294;BME280;50636;45.596;5.258;2022-08-19T01:49:25;98473.00;;;20.25;79.26
64294;BME280;50636;45.596;5.258;2022-08-19T01:51:53;98470.09;;;20.17;82.69
64294;BME280;50636;45.596;5.258;2022-08-19T01:54:21;98480.75;;;20.27;84.19
64294;BME280;50636;45.596;5.258;2022-08-19T01:56:48;98481.28;;;20.29;85.03
64294;BME280;50636;45.596;5.258;2022-08-19T01:59:17;98474.91;;;20.09;84.36
64294;BME280;50636;45.596;5.258;2022-08-19T02:01:44;98478.91;;;19.81;85.27
64294;BME280;50636;45.596;5.258;2022-08-19T02:04:10;98485.56;;;19.79;86.91
64294;BME280;50636;45.596;5.258;2022-08-19T02:06:36;98483.44;;;19.91;88.35
64294;BME280;50636;45.596;5.258;2022-08-19T02:09:03;98478.09;;;20.06;90.04
64294;BME280;50636;45.596;5.258;2022-08-19T02:11:34;98482.63;;;20.11;90.35
64294;BME280;50636;45.596;5.258;2022-08-19T02:14:03;98479.72;;;20.02;90.16
64294;BME280;50636;45.596;5.258;2022-08-19T02:16:29;98485.84;;;19.92;90.48
64294;BME280;50636;45.596;5.258;2022-08-19T02:18:57;98480.50;;;19.72;90.91
64294;BME280;50636;45.596;5.258;2022-08-19T02:21:25;98491.09;;;19.62;91.88
64294;BME280;50636;45.596;5.258;2022-08-19T02:23:52;98496.91;;;19.43;92.11
64294;BME280;50636;45.596;5.258;2022-08-19T02:26:18;98491.06;;;19.46;93.48
64294;BME280;50636;45.596;5.258;2022-08-19T02:28:44;98505.44;;;19.55;94.70
64294;BME280;50636;45.596;5.258;2022-08-19T02:31:13;98500.41;;;19.64;95.41
64294;BME280;50636;45.596;5.258;2022-08-19T02:33:40;98503.59;;;19.61;95.59
64294;BME280;50636;45.596;5.258;2022-08-19T02:36:06;98504.13;;;19.53;95.80
64294;BME280;50636;45.596;5.258;2022-08-19T02:38:32;98508.91;;;19.46;95.97
64294;BME280;50636;45.596;5.258;2022-08-19T02:41:05;98505.44;;;19.45;96.52
64294;BME280;50636;45.596;5.258;2022-08-19T02:43:33;98498.81;;;19.48;96.97
64294;BME280;50636;45.596;5.258;2022-08-19T02:46:11;98511.03;;;19.49;97.38
64294;BME280;50636;45.596;5.258;2022-08-19T02:48:37;98508.34;;;19.39;96.89
64294;BME280;50636;45.596;5.258;2022-08-19T02:51:03;98517.13;;;19.34;97.19
64294;BME280;50636;45.596;5.258;2022-08-19T02:53:29;98512.31;;;19.31;97.51
64294;BME280;50636;45.596;5.258;2022-08-19T02:55:55;98510.47;;;19.36;97.99
64294;BME280;50636;45.596;5.258;2022-08-19T02:58:21;98514.47;;;19.49;98.95
64294;BME280;50636;45.596;5.258;2022-08-19T03:00:51;98509.19;;;19.54;99.06
64294;BME280;50636;45.596;5.258;2022-08-19T03:03:18;98513.94;;;19.42;98.34
64294;BME280;50636;45.596;5.258;2022-08-19T03:05:44;98520.88;;;19.38;98.37
64294;BME280;50636;45.596;5.258;2022-08-19T03:08:12;98526.19;;;19.38;98.74
64294;BME280;50636;45.596;5.258;2022-08-19T03:10:43;98528.56;;;19.34;98.62
64294;BME280;50636;45.596;5.258;2022-08-19T03:13:15;98529.84;;;19.27;98.48
64294;BME280;50636;45.596;5.258;2022-08-19T03:15:44;98523.50;;;19.28;98.63
64294;BME280;50636;45.596;5.258;2022-08-19T03:18:10;98536.00;;;19.32;98.80
64294;BME280;50636;45.596;5.258;2022-08-19T03:20:50;98529.38;;;19.40;99.02
64294;BME280;50636;45.596;5.258;2022-08-19T03:23:17;98539.50;;;19.43;98.79
64294;BME280;50636;45.596;5.258;2022-08-19T03:25:45;98530.72;;;19.43;98.50
64294;BME280;50636;45.596;5.258;2022-08-19T03:28:14;98534.72;;;19.40;97.89
64294;BME280;50636;45.596;5.258;2022-08-19T03:30:42;98529.41;;;19.55;98.63
64294;BME280;50636;45.596;5.258;2022-08-19T03:33:10;98524.97;;;19.77;99.27
64294;BME280;50636;45.596;5.258;2022-08-19T03:35:37;98536.69;;;19.86;99.10
64294;BME280;50636;45.596;5.258;2022-08-19T03:38:04;98526.31;;;19.89;98.77
64294;BME280;50636;45.596;5.258;2022-08-19T03:40:35;98530.84;;;19.99;98.37
64294;BME280;50636;45.596;5.258;2022-08-19T03:43:02;98528.19;;;20.20;98.54
64294;BME280;50636;45.596;5.258;2022-08-19T03:45:28;98524.19;;;20.22;96.91
64294;BME280;50636;45.596;5.258;2022-08-19T03:47:54;98526.03;;;20.22;96.01
64294;BME280;50636;45.596;5.258;2022-08-19T03:50:20;98531.91;;;20.13;95.54
64294;BME280;50636;45.596;5.258;2022-08-19T03:52:50;98527.66;;;20.07;94.99
64294;BME280;50636;45.596;5.258;2022-08-19T03:55:17;98539.91;;;20.08;95.32
64294;BME280;50636;45.596;5.258;2022-08-19T03:57:43;98546.81;;;20.09;95.25
64294;BME280;50636;45.596;5.258;2022-08-19T04:00:12;98545.22;;;20.13;95.46
64294;BME280;50636;45.596;5.258;2022-08-19T04:02:38;98550.56;;;20.19;95.19
64294;BME280;50636;45.596;5.258;2022-08-19T04:05:03;98557.50;;;20.14;94.78
64294;BME280;50636;45.596;5.258;2022-08-19T04:07:30;98560.97;;;20.15;95.30
64294;BME280;50636;45.596;5.258;2022-08-19T04:09:55;98564.66;;;20.14;95.44
64294;BME280;50636;45.596;5.258;2022-08-19T04:12:24;98570.28;;;20.12;95.51
64294;BME280;50636;45.596;5.258;2022-08-19T04:14:50;98576.94;;;20.10;95.29
64294;BME280;50636;45.596;5.258;2022-08-19T04:17:15;98578.81;;;20.14;95.66
64294;BME280;50636;45.596;5.258;2022-08-19T04:19:41;98579.31;;;20.01;94.24
64294;BME280;50636;45.596;5.258;2022-08-19T04:22:08;98580.69;;;20.24;95.87
64294;BME280;50636;45.596;5.258;2022-08-19T04:24:35;98575.06;;;20.51;95.63
64294;BME280;50636;45.596;5.258;2022-08-19T04:27:01;98568.16;;;20.66;94.95
64294;BME280;50636;45.596;5.258;2022-08-19T04:29:28;98571.63;;;20.66;94.11
64294;BME280;50636;45.596;5.258;2022-08-19T04:31:56;98580.16;;;20.73;93.57
64294;BME280;50636;45.596;5.258;2022-08-19T04:34:25;98575.31;;;20.86;93.91
64294;BME280;50636;45.596;5.258;2022-08-19T04:36:52;98576.09;;;21.02;93.01
64294;BME280;50636;45.596;5.258;2022-08-19T04:39:24;98581.94;;;20.99;91.35
64294;BME280;50636;45.596;5.258;2022-08-19T04:42:13;98583.56;;;21.00;91.11
64294;BME280;50636;45.596;5.258;2022-08-19T04:44:58;98592.91;;;20.92;89.80
64294;BME280;50636;45.596;5.258;2022-08-19T04:47:24;98596.69;;;20.55;88.46
64294;BME280;50636;45.596;5.258;2022-08-19T04:49:49;98595.63;;;20.41;89.98
64294;BME280;50636;45.596;5.258;2022-08-19T04:52:15;98593.75;;;20.62;91.06
64294;BME280;50636;45.596;5.258;2022-08-19T04:54:41;98594.00;;;20.91;91.04
64294;BME280;50636;45.596;5.258;2022-08-19T04:57:08;98601.78;;;20.67;87.61
64294;BME280;50636;45.596;5.258;2022-08-19T04:59:35;98600.13;;;20.30;88.78
64294;BME280;50636;45.596;5.258;2022-08-19T05:02:03;98600.41;;;20.64;91.18
64294;BME280;50636;45.596;5.258;2022-08-19T05:04:29;98601.47;;;20.73;88.82
64294;BME280;50636;45.596;5.258;2022-08-19T05:06:57;98614.00;;;20.68;89.84
64294;BME280;50636;45.596;5.258;2022-08-19T05:09:22;98601.47;;;20.73;90.98
64294;BME280;50636;45.596;5.258;2022-08-19T05:11:48;98614.53;;;20.95;89.84
64294;BME280;50636;45.596;5.258;2022-08-19T05:14:14;98612.41;;;20.87;89.41
64294;BME280;50636;45.596;5.258;2022-08-19T05:16:40;98627.06;;;20.80;89.72
64294;BME280;50636;45.596;5.258;2022-08-19T05:19:06;98626.25;;;21.00;89.40
64294;BME280;50636;45.596;5.258;2022-08-19T05:21:50;98626.69;;;21.32;87.25
64294;BME280;50636;45.596;5.258;2022-08-19T05:24:34;98638.72;;;21.25;87.95
64294;BME280;50636;45.596;5.258;2022-08-19T05:27:01;98639.56;;;21.15;88.31
64294;BME280;50636;45.596;5.258;2022-08-19T05:29:31;98640.09;;;21.12;89.39
64294;BME280;50636;45.596;5.258;2022-08-19T05:31:57;98652.41;;;21.03;89.00
64294;BME280;50636;45.596;5.258;2022-08-19T05:34:24;98663.06;;;20.92;90.05
64294;BME280;50636;45.596;5.258;2022-08-19T05:36:54;98658.00;;;20.70;91.06
64294;BME280;50636;45.596;5.258;2022-08-19T05:39:23;98659.31;;;20.47;92.23
64294;BME280;50636;45.596;5.258;2022-08-19T05:41:55;98653.69;;;20.18;92.59
64294;BME280;50636;45.596;5.258;2022-08-19T05:44:24;98652.03;;;20.02;94.07
64294;BME280;50636;45.596;5.258;2022-08-19T05:46:50;98644.84;;;19.97;95.48
64294;BME280;50636;45.596;5.258;2022-08-19T05:49:18;98650.97;;;19.92;96.49
64294;BME280;50636;45.596;5.258;2022-08-19T05:51:44;98655.19;;;19.78;96.31
64294;BME280;50636;45.596;5.258;2022-08-19T05:54:11;98658.06;;;19.71;97.24
64294;BME280;50636;45.596;5.258;2022-08-19T05:56:39;98661.25;;;19.68;97.55
64294;BME280;50636;45.596;5.258;2022-08-19T05:59:07;98659.88;;;19.66;97.90
64294;BME280;50636;45.596;5.258;2022-08-19T06:01:41;98664.97;;;19.67;98.26
64294;BME280;50636;45.596;5.258;2022-08-19T06:04:08;98670.34;;;19.78;98.99
64294;BME280;50636;45.596;5.258;2022-08-19T06:06:35;98661.84;;;19.86;99.59
64294;BME280;50636;45.596;5.258;2022-08-19T06:09:03;98677.31;;;19.89;99.35
64294;BME280;50636;45.596;5.258;2022-08-19T06:11:35;98664.41;;;19.65;97.79
64294;BME280;50636;45.596;5.258;2022-08-19T06:14:05;98663.44;;;19.77;98.83
64294;BME280;50636;45.596;5.258;2022-08-19T06:16:38;98670.03;;;19.69;98.28
64294;BME280;50636;45.596;5.258;2022-08-19T06:19:07;98670.91;;;19.85;99.66
64294;BME280;50636;45.596;5.258;2022-08-19T06:21:35;98672.56;;;19.96;99.96
64294;BME280;50636;45.596;5.258;2022-08-19T06:24:06;98671.25;;;20.09;100.00
64294;BME280;50636;45.596;5.258;2022-08-19T06:26:37;98674.72;;;20.09;99.79
64294;BME280;50636;45.596;5.258;2022-08-19T06:29:09;98678.41;;;19.93;99.11
64294;BME280;50636;45.596;5.258;2022-08-19T06:31:35;98690.66;;;19.94;99.61
64294;BME280;50636;45.596;5.258;2022-08-19T06:34:04;98698.09;;;19.92;99.89
64294;BME280;50636;45.596;5.258;2022-08-19T06:36:36;98697.84;;;19.93;100.00
64294;BME280;50636;45.596;5.258;2022-08-19T06:39:04;98692.53;;;20.04;100.00
64294;BME280;50636;45.596;5.258;2022-08-19T06:41:35;98699.75;;;19.98;100.00
64294;BME280;50636;45.596;5.258;2022-08-19T06:44:02;98704.25;;;19.98;100.00
64294;BME280;50636;45.596;5.258;2022-08-19T06:46:27;98712.03;;;20.14;100.00
64294;BME280;50636;45.596;5.258;2022-08-19T06:48:54;98708.84;;;20.12;100.00
64294;BME280;50636;45.596;5.258;2022-08-19T06:51:22;98713.34;;;20.12;100.00
64294;BME280;50636;45.596;5.258;2022-08-19T06:53:51;98711.53;;;20.23;100.00
64294;BME280;50636;45.596;5.258;2022-08-19T06:56:20;98712.63;;;20.42;100.00
64294;BME280;50636;45.596;5.258;2022-08-19T06:58:47;98706.22;;;20.38;100.00
64294;BME280;50636;45.596;5.258;2022-08-19T07:01:16;98707.28;;;20.42;100.00
64294;BME280;50636;45.596;5.258;2022-08-19T07:03:41;98712.09;;;20.40;100.00
64294;BME280;50636;45.596;5.258;2022-08-19T07:06:10;98716.41;;;20.62;100.00
64294;BME280;50636;45.596;5.258;2022-08-19T07:08:37;98718.81;;;20.63;100.00
64294;BME280;50636;45.596;5.258;2022-08-19T07:11:11;98727.38;;;20.75;100.00
64294;BME280;50636;45.596;5.258;2022-08-19T07:13:39;98728.72;;;20.83;100.00
64294;BME280;50636;45.596;5.258;2022-08-19T07:16:11;98735.66;;;20.79;99.52
64294;BME280;50636;45.596;5.258;2022-08-19T07:18:38;98733.25;;;20.78;99.55
64294;BME280;50636;45.596;5.258;2022-08-19T07:21:27;98739.13;;;20.74;99.06
64294;BME280;50636;45.596;5.258;2022-08-19T07:23:53;98745.22;;;20.70;98.89
64294;BME280;50636;45.596;5.258;2022-08-19T07:26:23;98745.44;;;20.58;98.02
64294;BME280;50636;45.596;5.258;2022-08-19T07:28:49;98753.19;;;20.54;97.76
64294;BME280;50636;45.596;5.258;2022-08-19T07:31:20;98754.25;;;20.53;97.57
64294;BME280;50636;45.596;5.258;2022-08-19T07:33:48;98751.06;;;20.57;97.51
64294;BME280;50636;45.596;5.258;2022-08-19T07:36:17;98748.44;;;20.67;97.74
64294;BME280;50636;45.596;5.258;2022-08-19T07:38:46;98752.47;;;20.74;97.23
64294;BME280;50636;45.596;5.258;2022-08-19T07:41:25;98749.78;;;20.74;96.47
64294;BME280;50636;45.596;5.258;2022-08-19T07:43:51;98758.84;;;20.84;96.59
64294;BME280;50636;45.596;5.258;2022-08-19T07:46:18;98745.78;;;20.92;96.41
64294;BME280;50636;45.596;5.258;2022-08-19T07:48:47;98744.44;;;21.10;96.60
64294;BME280;50636;45.596;5.258;2022-08-19T07:51:17;98750.81;;;21.40;97.04
64294;BME280;50636;45.596;5.258;2022-08-19T07:53:43;98749.69;;;21.82;97.09
64294;BME280;50636;45.596;5.258;2022-08-19T07:56:14;98751.47;;;22.02;95.66
64294;BME280;50636;45.596;5.258;2022-08-19T07:58:42;98757.88;;;22.01;95.96
64294;BME280;50636;45.596;5.258;2022-08-19T08:01:11;98755.28;;;21.86;95.35
64294;BME280;50636;45.596;5.258;2022-08-19T08:03:38;98764.16;;;21.61;94.96
64294;BME280;50636;45.596;5.258;2022-08-19T08:06:23;98767.91;;;21.39;94.57
64294;BME280;50636;45.596;5.258;2022-08-19T08:09:07;98764.19;;;21.20;94.78
64294;BME280;50636;45.596;5.258;2022-08-19T08:11:42;98766.34;;;21.18;95.21
64294;BME280;50636;45.596;5.258;2022-08-19T08:14:17;98776.47;;;21.21;95.26
64294;BME280;50636;45.596;5.258;2022-08-19T08:16:43;98779.69;;;21.18;94.51
64294;BME280;50636;45.596;5.258;2022-08-19T08:19:12;98775.13;;;21.28;94.84
64294;BME280;50636;45.596;5.258;2022-08-19T08:21:40;98775.41;;;21.47;94.70
64294;BME280;50636;45.596;5.258;2022-08-19T08:24:07;98781.50;;;21.73;94.62
64294;BME280;50636;45.596;5.258;2022-08-19T08:26:32;98777.69;;;22.00;94.61
64294;BME280;50636;45.596;5.258;2022-08-19T08:28:58;98786.69;;;22.25;94.32
64294;BME280;50636;45.596;5.258;2022-08-19T08:31:24;98787.97;;;22.38;92.50
64294;BME280;50636;45.596;5.258;2022-08-19T08:33:49;98793.88;;;22.34;90.55
64294;BME280;50636;45.596;5.258;2022-08-19T08:36:15;98802.72;;;22.30;90.55
64294;BME280;50636;45.596;5.258;2022-08-19T08:38:43;98804.03;;;22.38;91.37
64294;BME280;50636;45.596;5.258;2022-08-19T08:42:16;98805.28;;;22.50;90.78
64294;BME280;50636;45.596;5.258;2022-08-19T08:47:10;98810.06;;;22.53;89.93
64294;BME280;50636;45.596;5.258;2022-08-19T08:49:46;98800.72;;;22.56;90.84
64294;BME280;50636;45.596;5.258;2022-08-19T08:52:24;98810.78;;;22.69;90.12
64294;BME280;50636;45.596;5.258;2022-08-19T08:54:53;98813.91;;;22.82;89.84
64294;BME280;50636;45.596;5.258;2022-08-19T08:57:27;98813.19;;;23.16;89.91
64294;BME280;50636;45.596;5.258;2022-08-19T09:00:00;98807.63;;;23.70;89.21
64294;BME280;50636;45.596;5.258;2022-08-19T09:02:29;98806.50;;;23.77;87.41
64294;BME280;50636;45.596;5.258;2022-08-19T09:04:55;98815.22;;;23.58;85.84
64294;BME280;50636;45.596;5.258;2022-08-19T09:10:13;98823.44;;;23.08;85.02
64294;BME280;50636;45.596;5.258;2022-08-19T09:12:57;98825.91;;;22.94;86.87
64294;BME280;50636;45.596;5.258;2022-08-19T09:15:46;98819.53;;;22.85;86.57
64294;BME280;50636;45.596;5.258;2022-08-19T09:18:14;98822.47;;;22.84;86.81
64294;BME280;50636;45.596;5.258;2022-08-19T09:20:42;98817.81;;;23.05;88.07
64294;BME280;50636;45.596;5.258;2022-08-19T09:23:08;98823.28;;;23.24;88.01
64294;BME280;50636;45.596;5.258;2022-08-19T09:25:34;98823.97;;;23.40;86.69
64294;BME280;50636;45.596;5.258;2022-08-19T09:28:00;98816.31;;;23.57;86.71
64294;BME280;50636;45.596;5.258;2022-08-19T09:30:38;98811.28;;;23.80;85.51
64294;BME280;50636;45.596;5.258;2022-08-19T09:33:05;98815.91;;;23.98;86.37
64294;BME280;50636;45.596;5.258;2022-08-19T09:35:33;98831.22;;;24.22;85.03
64294;BME280;50636;45.596;5.258;2022-08-19T09:38:02;98814.00;;;24.47;84.50
64294;BME280;50636;45.596;5.258;2022-08-19T09:40:28;98814.81;;;24.66;83.72
64294;BME280;50636;45.596;5.258;2022-08-19T09:42:54;98819.47;;;24.80;82.17
64294;BME280;50636;45.596;5.258;2022-08-19T09:45:21;98823.66;;;25.05;82.53
64294;BME280;50636;45.596;5.258;2022-08-19T09:47:49;98829.88;;;25.38;82.00
64294;BME280;50636;45.596;5.258;2022-08-19T09:50:16;98828.22;;;25.56;81.13
64294;BME280;50636;45.596;5.258;2022-08-19T09:52:43;98832.25;;;25.73;81.27
64294;BME280;50636;45.596;5.258;2022-08-19T09:55:10;98831.66;;;25.76;78.32
64294;BME280;50636;45.596;5.258;2022-08-19T09:57:37;98829.31;;;25.55;79.40
64294;BME280;50636;45.596;5.258;2022-08-19T10:00:06;98832.97;;;25.31;79.12
64294;BME280;50636;45.596;5.258;2022-08-19T10:02:33;98834.84;;;25.12;79.25
64294;BME280;50636;45.596;5.258;2022-08-19T10:04:58;98830.41;;;25.02;79.34
64294;BME280;50636;45.596;5.258;2022-08-19T10:07:42;98829.25;;;25.08;80.44
64294;BME280;50636;45.596;5.258;2022-08-19T10:10:08;98834.25;;;25.15;80.40
64294;BME280;50636;45.596;5.258;2022-08-19T10:12:35;98829.13;;;25.00;77.19
64294;BME280;50636;45.596;5.258;2022-08-19T10:15:04;98826.66;;;24.65;78.60
64294;BME280;50636;45.596;5.258;2022-08-19T10:17:30;98830.19;;;24.61;78.96
64294;BME280;50636;45.596;5.258;2022-08-19T10:19:59;98829.50;;;24.74;80.00
64294;BME280;50636;45.596;5.258;2022-08-19T10:22:24;98827.94;;;25.25;81.08
64294;BME280;50636;45.596;5.258;2022-08-19T10:24:50;98828.47;;;25.74;79.25
64294;BME280;50636;45.596;5.258;2022-08-19T10:27:17;98827.13;;;26.04;78.18
64294;BME280;50636;45.596;5.258;2022-08-19T10:29:43;98833.50;;;26.08;77.03
64294;BME280;50636;45.596;5.258;2022-08-19T10:32:09;98830.06;;;25.75;74.70
64294;BME280;50636;45.596;5.258;2022-08-19T10:34:36;98843.03;;;25.40;76.85
64294;BME280;50636;45.596;5.258;2022-08-19T10:37:04;98843.91;;;25.16;76.59
64294;BME280;50636;45.596;5.258;2022-08-19T10:39:35;98847.31;;;25.03;77.71
64294;BME280;50636;45.596;5.258;2022-08-19T10:42:06;98847.13;;;24.99;75.90
64294;BME280;50636;45.596;5.258;2022-08-19T10:44:33;98858.72;;;24.95;77.53
64294;BME280;50636;45.596;5.258;2022-08-19T10:47:02;98851.97;;;24.78;77.17
64294;BME280;50636;45.596;5.258;2022-08-19T10:49:28;98855.63;;;24.87;77.19
64294;BME280;50636;45.596;5.258;2022-08-19T10:51:55;98853.50;;;24.84;77.52
64294;BME280;50636;45.596;5.258;2022-08-19T10:54:40;98859.88;;;24.69;76.85
64294;BME280;50636;45.596;5.258;2022-08-19T10:57:24;98861.09;;;24.58;78.07
64294;BME280;50636;45.596;5.258;2022-08-19T10:59:57;98864.06;;;24.57;77.31
64294;BME280;50636;45.596;5.258;2022-08-19T11:02:23;98866.75;;;24.57;78.29
64294;BME280;50636;45.596;5.258;2022-08-19T11:04:49;98868.72;;;24.51;77.77
64294;BME280;50636;45.596;5.258;2022-08-19T11:07:17;98871.66;;;24.49;78.34
64294;BME280;50636;45.596;5.258;2022-08-19T11:09:43;98872.81;;;24.43;76.88
64294;BME280;50636;45.596;5.258;2022-08-19T11:12:09;98870.81;;;24.30;75.89
64294;BME280;50636;45.596;5.258;2022-08-19T11:14:36;98871.94;;;24.24;76.25
64294;BME280;50636;45.596;5.258;2022-08-19T11:17:03;98867.88;;;24.26;77.38
64294;BME280;50636;45.596;5.258;2022-08-19T11:19:30;98880.34;;;24.41;77.31
64294;BME280;50636;45.596;5.258;2022-08-19T11:21:56;98884.44;;;24.33;77.20
64294;BME280;50636;45.596;5.258;2022-08-19T11:24:24;98877.94;;;24.16;78.18
64294;BME280;50636;45.596;5.258;2022-08-19T11:26:51;98877.94;;;24.16;77.83
64294;BME280;50636;45.596;5.258;2022-08-19T11:29:20;98876.69;;;24.32;77.98
64294;BME280;50636;45.596;5.258;2022-08-19T11:31:48;98889.69;;;24.44;78.01
64294;BME280;50636;45.596;5.258;2022-08-19T11:34:20;98887.19;;;24.52;77.92
64294;BME280;50636;45.596;5.258;2022-08-19T11:36:48;98896.78;;;24.59;79.54
64294;BME280;50636;45.596;5.258;2022-08-19T11:39:18;98886.78;;;24.40;80.61
64294;BME280;50636;45.596;5.258;2022-08-19T11:41:44;98895.91;;;24.15;81.20
64294;BME280;50636;45.596;5.258;2022-08-19T11:44:10;98896.66;;;23.97;81.49
64294;BME280;50636;45.596;5.258;2022-08-19T11:46:37;98897.53;;;23.87;81.43
64294;BME280;50636;45.596;5.258;2022-08-19T11:49:05;98892.94;;;23.92;81.57
64294;BME280;50636;45.596;5.258;2022-08-19T11:51:37;98895.41;;;24.13;81.31
64294;BME280;50636;45.596;5.258;2022-08-19T11:54:05;98899.41;;;24.40;81.11
64294;BME280;50636;45.596;5.258;2022-08-19T11:56:31;98894.16;;;24.54;79.91
64294;BME280;50636;45.596;5.258;2022-08-19T11:58:56;98895.75;;;24.55;77.89
64294;BME280;50636;45.596;5.258;2022-08-19T12:01:24;98902.72;;;24.56;78.18
64294;BME280;50636;45.596;5.258;2022-08-19T12:03:51;98902.09;;;24.64;77.03
64294;BME280;50636;45.596;5.258;2022-08-19T12:06:22;98895.28;;;24.47;76.28
64294;BME280;50636;45.596;5.258;2022-08-19T12:08:51;98903.28;;;24.52;75.79
64294;BME280;50636;45.596;5.258;2022-08-19T12:11:17;98894.59;;;24.37;76.58
64294;BME280;50636;45.596;5.258;2022-08-19T12:13:43;98893.38;;;24.29;77.05
64294;BME280;50636;45.596;5.258;2022-08-19T12:16:19;98901.69;;;24.27;76.66
64294;BME280;50636;45.596;5.258;2022-08-19T12:18:46;98901.00;;;24.17;75.39
64294;BME280;50636;45.596;5.258;2022-08-19T12:21:17;98889.13;;;24.23;76.15
64294;BME280;50636;45.596;5.258;2022-08-19T12:23:48;98893.56;;;24.32;75.30
64294;BME280;50636;45.596;5.258;2022-08-19T12:26:15;98886.78;;;24.16;74.10
64294;BME280;50636;45.596;5.258;2022-08-19T12:28:41;98886.16;;;24.24;75.72
64294;BME280;50636;45.596;5.258;2022-08-19T12:31:07;98887.88;;;24.39;75.62
64294;BME280;50636;45.596;5.258;2022-08-19T12:33:33;98887.66;;;24.60;74.63
64294;BME280;50636;45.596;5.258;2022-08-19T12:36:01;98893.13;;;24.74;74.96
64294;BME280;50636;45.596;5.258;2022-08-19T12:38:28;98894.44;;;24.95;74.68
64294;BME280;50636;45.596;5.258;2022-08-19T12:40:54;98895.59;;;25.08;74.06
64294;BME280;50636;45.596;5.258;2022-08-19T12:43:20;98894.06;;;25.21;73.87
64294;BME280;50636;45.596;5.258;2022-08-19T12:45:47;98889.88;;;25.34;73.63
64294;BME280;50636;45.596;5.258;2022-08-19T12:48:13;98901.22;;;25.63;73.93
64294;BME280;50636;45.596;5.258;2022-08-19T12:50:41;98892.84;;;25.98;73.82
64294;BME280;50636;45.596;5.258;2022-08-19T12:53:06;98893.66;;;26.40;73.17
64294;BME280;50636;45.596;5.258;2022-08-19T12:55:32;98887.50;;;26.67;69.81
64294;BME280;50636;45.596;5.258;2022-08-19T12:57:58;98896.53;;;26.85;69.71
64294;BME280;50636;45.596;5.258;2022-08-19T13:00:27;98882.94;;;26.90;66.90
64294;BME280;50636;45.596;5.258;2022-08-19T13:02:53;98885.41;;;27.00;66.68
64294;BME280;50636;45.596;5.258;2022-08-19T13:05:22;98882.63;;;27.05;68.55
64294;BME280;50636;45.596;5.258;2022-08-19T13:07:50;98879.13;;;27.05;68.31
64294;BME280;50636;45.596;5.258;2022-08-19T13:10:19;98880.78;;;26.78;65.42
64294;BME280;50636;45.596;5.258;2022-08-19T13:12:47;98879.81;;;26.33;68.53
64294;BME280;50636;45.596;5.258;2022-08-19T13:15:17;98889.59;;;26.15;68.70